Shoei Maru — JD3054 — position and weather

sailwx.info

Track history (hours):
 
Tides and Currents Weather Stations Pressure Air Temp Water Temp Dewpoint Dewpoint Depression Visibility Wind Speed Wind Dir Waves Ship Positions

Shoei Maru

Last reported at 2018-Apr-24 05:00 UTC. Time now 2018-Apr-24 05:07 UTC.
Position N 35°04' E 136°52'.

Length 105 m; draft 6.3 m.

Type: Tanker. MMSI: 431001401.

Date/timePositionNaut miles runAvg speedWind from/ knotsBaromVisibWave heightAir tempDewpointWater temp
2018-Apr-24 05:00N 35°04' E 136°52'0 0.0
2018-Apr-24 04:30N 35°04' E 136°52'0 0.0
2018-Apr-24 04:00N 35°04' E 136°52'0 0.0
2018-Apr-24 03:30N 35°04' E 136°52'0 0.0
2018-Apr-24 03:00N 35°04' E 136°52'0 0.0
2018-Apr-24 02:30N 35°04' E 136°52'0 0.0
2018-Apr-24 02:00N 35°04' E 136°52'0 0.0
2018-Apr-24 01:30N 35°04' E 136°52'0 0.0
2018-Apr-24 01:00N 35°04' E 136°52'0 0.0
2018-Apr-24 00:30N 35°04' E 136°52'0 0.0
2018-Apr-24 00:00N 35°04' E 136°52'0 0.1
2018-Apr-23 23:30N 35°04' E 136°52'3 6.1
2018-Apr-23 23:00N 35°01' E 136°50'4 8.5
2018-Apr-23 22:30N 34°58' E 136°47'0 0.2
2018-Apr-23 22:00N 34°58' E 136°47'0 0.0
2018-Apr-23 21:30N 34°58' E 136°47'0 0.0
2018-Apr-23 21:00N 34°58' E 136°47'0 0.0
2018-Apr-23 20:30N 34°58' E 136°47'0 0.0
2018-Apr-23 20:00N 34°58' E 136°47'0 0.0
2018-Apr-23 19:30N 34°58' E 136°47'0 0.0
2018-Apr-23 19:00N 34°58' E 136°47'0 0.0
2018-Apr-23 18:30N 34°58' E 136°47'0 0.0
2018-Apr-23 18:00N 34°58' E 136°47'0 0.0
2018-Apr-23 17:30N 34°58' E 136°47'0 0.0
2018-Apr-23 17:00N 34°58' E 136°47'0 0.0
2018-Apr-23 16:30N 34°58' E 136°47'0 0.0
2018-Apr-23 16:00N 34°58' E 136°47'0 0.0
2018-Apr-23 15:30N 34°58' E 136°47'0 0.1
2018-Apr-23 15:00N 34°58' E 136°47'0 0.0
2018-Apr-23 14:30N 34°58' E 136°47'0 0.0
2018-Apr-23 14:00N 34°58' E 136°47'0 0.0
2018-Apr-23 13:30N 34°58' E 136°47'0 0.0
2018-Apr-23 13:00N 34°58' E 136°47'0 0.0
2018-Apr-23 12:30N 34°58' E 136°47'0 0.0
2018-Apr-23 12:00N 34°58' E 136°47'0 0.0
2018-Apr-23 11:30N 34°58' E 136°47'0 0.0
2018-Apr-23 11:00N 34°58' E 136°47'0 0.0
2018-Apr-23 10:30N 34°58' E 136°47'0 0.0
2018-Apr-23 10:00N 34°58' E 136°47'0 0.0
2018-Apr-23 09:30N 34°58' E 136°47'0 0.1
2018-Apr-23 09:00N 34°58' E 136°47'0 0.0
2018-Apr-23 08:30N 34°58' E 136°47'0 0.0
2018-Apr-23 08:00N 34°58' E 136°47'0 0.0
2018-Apr-23 07:30N 34°58' E 136°47'0 0.0
2018-Apr-23 07:00N 34°58' E 136°47'0 0.0
2018-Apr-23 06:30N 34°58' E 136°47'0 0.2
2018-Apr-23 06:00N 34°58' E 136°47'4 7.8
2018-Apr-23 05:30N 34°57' E 136°42'3 5.4
2018-Apr-23 04:56N 34°57' E 136°38'0 0.0
2018-Apr-23 04:29N 34°57' E 136°38'0 0.0
2018-Apr-23 03:56N 34°57' E 136°38'0 0.0
2018-Apr-23 03:29N 34°57' E 136°38'0 0.0
2018-Apr-23 02:56N 34°57' E 136°38'0 0.0
2018-Apr-23 02:26N 34°57' E 136°38'0 0.0
2018-Apr-23 01:59N 34°57' E 136°38'0 0.0
2018-Apr-23 01:26N 34°57' E 136°38'0 0.0
2018-Apr-23 00:56N 34°57' E 136°38'0 0.0
2018-Apr-23 00:29N 34°57' E 136°38'0 0.0
2018-Apr-22 23:56N 34°57' E 136°38'0 0.0
2018-Apr-22 23:26N 34°57' E 136°38'0 0.0
2018-Apr-22 22:56N 34°57' E 136°38'0 0.0
2018-Apr-22 22:29N 34°57' E 136°38'0 0.0
2018-Apr-22 21:57N 34°57' E 136°38'1 1.4
2018-Apr-22 21:30N 34°57' E 136°39'1 1.7
2018-Apr-22 20:55N 34°57' E 136°40'0 0.0
2018-Apr-22 20:28N 34°57' E 136°40'0 0.0
2018-Apr-22 19:58N 34°57' E 136°40'0 0.0
2018-Apr-22 19:25N 34°57' E 136°40'0 0.0
2018-Apr-22 18:58N 34°57' E 136°40'0 0.0
2018-Apr-22 18:28N 34°57' E 136°40'0 0.0
2018-Apr-22 17:58N 34°57' E 136°40'0 0.0
2018-Apr-22 17:28N 34°57' E 136°40'0 0.0
2018-Apr-22 16:49N 34°57' E 136°40'0 0.0
2018-Apr-22 16:28N 34°57' E 136°40'0 0.1
2018-Apr-22 15:58N 34°57' E 136°40'0 0.0
2018-Apr-22 15:28N 34°57' E 136°40'0 0.0
2018-Apr-22 14:58N 34°57' E 136°40'0 0.0
2018-Apr-22 14:28N 34°57' E 136°40'0 0.1
2018-Apr-22 13:59N 34°57' E 136°40'4 7.4
2018-Apr-22 13:30N 34°54' E 136°43'713.4
2018-Apr-22 13:00N 34°48' E 136°46'813.6
2018-Apr-22 12:25N 34°41' E 136°51'613.7
2018-Apr-22 12:00N 34°37' E 136°56'713.6
2018-Apr-22 11:30N 34°33' E 137°02'713.1
2018-Apr-22 11:00N 34°32' E 137°10'612.0
2018-Apr-22 10:31N 34°32' E 137°17'812.0
2018-Apr-22 09:52N 34°32' E 137°27'612.0
2018-Apr-22 09:23N 34°32' E 137°34'512.0
2018-Apr-22 08:59N 34°32' E 137°39'611.9
2018-Apr-22 08:30N 34°32' E 137°47'611.7
2018-Apr-22 07:57N 34°32' E 137°54'611.4
2018-Apr-22 07:27N 34°32' E 138°01'611.4
2018-Apr-22 06:58N 34°31' E 138°08'511.2
2018-Apr-22 06:29N 34°31' E 138°15'510.9
2018-Apr-22 05:58N 34°32' E 138°21'611.3
2018-Apr-22 05:28N 34°32' E 138°28'511.2
2018-Apr-22 05:00N 34°32' E 138°34'510.8
2018-Apr-22 04:30N 34°32' E 138°41'511.0
2018-Apr-22 04:00N 34°33' E 138°48'510.9
2018-Apr-22 03:30N 34°33' E 138°54'510.1
2018-Apr-22 03:00N 34°34' E 139°00'510.9
2018-Apr-22 02:30N 34°38' E 139°04'710.4
2018-Apr-22 01:48N 34°44' E 139°09'311.0
2018-Apr-22 01:30N 34°47' E 139°12'510.8
2018-Apr-22 00:59N 34°51' E 139°16'510.7
2018-Apr-22 00:29N 34°55' E 139°21'511.0
2018-Apr-22 00:00N 34°57' E 139°26'611.7
2018-Apr-21 23:29N 35°01' E 139°33'612.5
2018-Apr-21 23:00N 35°04' E 139°39'612.2
2018-Apr-21 22:30N 35°08' E 139°44'612.3
2018-Apr-21 22:00N 35°14' E 139°46'612.0
2018-Apr-21 21:30N 35°19' E 139°43'611.6
2018-Apr-21 21:00N 35°25' E 139°43'611.9
2018-Apr-21 20:31N 35°29' E 139°48'3 5.7
2018-Apr-21 20:00N 35°32' E 139°46'0 0.0
2018-Apr-21 19:27N 35°32' E 139°46'0 0.0
2018-Apr-21 19:00N 35°32' E 139°46'0 0.0
2018-Apr-21 18:30N 35°32' E 139°46'0 0.0
2018-Apr-21 18:00N 35°32' E 139°46'0 0.0
2018-Apr-21 17:30N 35°32' E 139°46'0 0.0
2018-Apr-21 17:00N 35°32' E 139°46'0 0.0
2018-Apr-21 16:30N 35°32' E 139°46'0 0.0
2018-Apr-21 16:00N 35°32' E 139°46'0 0.0
2018-Apr-21 15:30N 35°32' E 139°46'0 0.0
2018-Apr-21 14:57N 35°32' E 139°46'0 0.0
2018-Apr-21 14:30N 35°32' E 139°46'0 0.0
2018-Apr-21 14:00N 35°32' E 139°46'0 0.0
2018-Apr-21 13:30N 35°32' E 139°46'0 0.0
2018-Apr-21 12:57N 35°32' E 139°46'0 0.0
2018-Apr-21 12:27N 35°32' E 139°46'0 0.0
2018-Apr-21 12:00N 35°32' E 139°46'0 0.0
2018-Apr-21 11:30N 35°32' E 139°46'0 0.0
2018-Apr-21 10:57N 35°32' E 139°46'0 0.0
2018-Apr-21 10:30N 35°32' E 139°46'0 0.0
2018-Apr-21 09:45N 35°32' E 139°46'0 0.0
2018-Apr-21 09:24N 35°32' E 139°46'0 0.0
2018-Apr-21 09:00N 35°32' E 139°46'0 0.0
2018-Apr-21 08:21N 35°32' E 139°46'0 0.0
2018-Apr-21 07:57N 35°32' E 139°46'0 0.0
2018-Apr-21 07:30N 35°32' E 139°46'0 0.0
2018-Apr-21 07:00N 35°32' E 139°46'0 0.3
2018-Apr-21 06:31N 35°32' E 139°46'2 3.1
2018-Apr-21 06:00N 35°30' E 139°45'3 7.0
2018-Apr-21 05:31N 35°27' E 139°44'1 2.7
2018-Apr-21 05:01N 35°26' E 139°45'4 7.2
2018-Apr-21 04:31N 35°23' E 139°46'5 9.9
2018-Apr-21 04:01N 35°18' E 139°45'510.9
2018-Apr-21 03:31N 35°13' E 139°47'612.1
2018-Apr-21 03:01N 35°07' E 139°45'612.6
2018-Apr-21 02:31N 35°01' E 139°43'611.9
2018-Apr-21 02:00N 34°55' E 139°45'611.0
2018-Apr-21 01:29N 34°52' E 139°51'711.9
2018-Apr-21 00:54N 34°54' E 139°59'512.5
2018-Apr-21 00:30N 34°56' E 140°04'712.5
2018-Apr-20 23:57N 34°59' E 140°12'912.3
2018-Apr-20 23:15N 35°03' E 140°21'  
2018-Apr-16 18:02N 35°03' E 140°23'111.9
2018-Apr-16 18:00N 35°03' E 140°23'912.0
2018-Apr-16 17:17N 34°58' E 140°14'311.6
2018-Apr-16 17:00N 34°57' E 140°10'611.9
2018-Apr-16 16:30N 34°55' E 140°03'1111.9
2018-Apr-16 15:34N 34°51' E 139°51'111.2
2018-Apr-16 15:28N 34°52' E 139°49'710.4
2018-Apr-16 14:49N 34°57' E 139°44'412.8
2018-Apr-16 14:30N 35°01' E 139°43'612.5
2018-Apr-16 14:00N 35°07' E 139°44'612.7
2018-Apr-16 13:31N 35°13' E 139°46'612.3
2018-Apr-16 13:01N 35°19' E 139°43'611.8
2018-Apr-16 12:31N 35°24' E 139°40'2 2.9
2018-Apr-16 11:58N 35°25' E 139°38'0 0.0
2018-Apr-16 11:28N 35°25' E 139°38'0 0.0
2018-Apr-16 10:58N 35°25' E 139°38'0 0.0
2018-Apr-16 10:28N 35°25' E 139°38'0 0.0
2018-Apr-16 09:58N 35°25' E 139°38'0 0.0
2018-Apr-16 09:28N 35°25' E 139°38'0 0.0
2018-Apr-16 08:58N 35°25' E 139°38'0 0.0
2018-Apr-16 08:28N 35°25' E 139°38'0 0.0
2018-Apr-16 07:58N 35°25' E 139°38'0 0.0
2018-Apr-16 07:28N 35°25' E 139°38'0 0.0
2018-Apr-16 06:58N 35°25' E 139°38'0 0.0
2018-Apr-16 06:28N 35°25' E 139°38'0 0.0
2018-Apr-16 05:58N 35°25' E 139°38'0 0.0
2018-Apr-16 05:28N 35°25' E 139°38'0 0.0
2018-Apr-16 04:58N 35°25' E 139°38'0 0.0
2018-Apr-16 04:31N 35°25' E 139°38'1 1.8
2018-Apr-16 04:00N 35°24' E 139°39'3 6.9
2018-Apr-16 03:31N 35°24' E 139°43'0 0.7
2018-Apr-16 02:59N 35°23' E 139°44'0 0.0
2018-Apr-16 02:29N 35°23' E 139°44'0 0.0
2018-Apr-16 01:59N 35°23' E 139°44'0 0.0
2018-Apr-16 01:29N 35°23' E 139°44'0 0.0
2018-Apr-16 00:59N 35°23' E 139°44'0 0.0
2018-Apr-16 00:29N 35°23' E 139°44'0 0.0
2018-Apr-15 23:59N 35°23' E 139°44'0 0.0
2018-Apr-15 23:29N 35°23' E 139°44'0 0.0
2018-Apr-15 22:59N 35°23' E 139°44'0 0.0
2018-Apr-15 22:29N 35°23' E 139°44'0 0.1
2018-Apr-15 21:59N 35°23' E 139°44'0 0.1
2018-Apr-15 21:29N 35°23' E 139°44'0 0.1
2018-Apr-15 20:59N 35°23' E 139°44'0 0.0
2018-Apr-15 20:29N 35°23' E 139°44'0 0.0
2018-Apr-15 19:59N 35°23' E 139°44'0 0.0
2018-Apr-15 19:26N 35°23' E 139°44'0 0.0
2018-Apr-15 18:59N 35°23' E 139°44'0 0.0
2018-Apr-15 18:29N 35°23' E 139°44'0 0.0
2018-Apr-15 17:59N 35°23' E 139°44'0 0.0
2018-Apr-15 17:29N 35°23' E 139°44'0 0.0
2018-Apr-15 16:59N 35°23' E 139°44'0 0.0
2018-Apr-15 16:29N 35°23' E 139°44'0 0.0
2018-Apr-15 15:59N 35°23' E 139°44'0 0.0
2018-Apr-15 15:29N 35°23' E 139°44'0 0.0
2018-Apr-15 14:59N 35°23' E 139°44'0 0.0
2018-Apr-15 14:29N 35°23' E 139°44'0 0.0
2018-Apr-15 13:59N 35°23' E 139°44'0 0.1
2018-Apr-15 13:29N 35°23' E 139°44'0 0.1
2018-Apr-15 12:59N 35°23' E 139°44'0 0.0
2018-Apr-15 12:29N 35°23' E 139°44'0 0.0
2018-Apr-15 11:59N 35°23' E 139°44'0 0.0
2018-Apr-15 11:29N 35°23' E 139°44'0 0.1
2018-Apr-15 10:59N 35°23' E 139°44'0 0.0
2018-Apr-15 10:29N 35°23' E 139°44'0 0.0
2018-Apr-15 09:59N 35°23' E 139°44'0 0.1
2018-Apr-15 09:29N 35°24' E 139°44'0 0.2
2018-Apr-15 08:59N 35°24' E 139°44'0 0.0
2018-Apr-15 08:29N 35°24' E 139°44'0 0.1
2018-Apr-15 07:59N 35°24' E 139°44'0 0.0
2018-Apr-15 07:29N 35°24' E 139°44'0 0.0
2018-Apr-15 06:59N 35°24' E 139°44'0 0.0
2018-Apr-15 06:29N 35°24' E 139°44'0 0.0
2018-Apr-15 05:59N 35°24' E 139°44'0 0.0
2018-Apr-15 05:29N 35°24' E 139°44'0 0.0
2018-Apr-15 04:59N 35°24' E 139°44'0 0.0
2018-Apr-15 04:29N 35°24' E 139°44'0 0.0
2018-Apr-15 03:59N 35°24' E 139°44'0 0.0
2018-Apr-15 03:29N 35°24' E 139°44'0 0.0
2018-Apr-15 02:59N 35°24' E 139°44'0 0.0
2018-Apr-15 02:29N 35°24' E 139°44'0 0.0
2018-Apr-15 01:59N 35°24' E 139°44'0 0.0
2018-Apr-15 01:29N 35°24' E 139°44'0 0.0
2018-Apr-15 00:59N 35°24' E 139°44'0 0.0
2018-Apr-15 00:29N 35°24' E 139°44'0 0.0
2018-Apr-14 23:59N 35°24' E 139°44'0 0.1
2018-Apr-14 23:26N 35°24' E 139°44'0 0.0
2018-Apr-14 22:59N 35°24' E 139°44'0 0.0
2018-Apr-14 22:29N 35°24' E 139°44'0 0.0
2018-Apr-14 21:59N 35°24' E 139°44'0 0.1
2018-Apr-14 21:29N 35°24' E 139°44'0 0.0
2018-Apr-14 20:59N 35°24' E 139°44'0 0.1
2018-Apr-14 20:29N 35°24' E 139°44'0 0.0
2018-Apr-14 19:59N 35°24' E 139°44'0 0.0
2018-Apr-14 19:29N 35°24' E 139°44'0 0.0
2018-Apr-14 18:59N 35°24' E 139°44'0 0.1
2018-Apr-14 18:29N 35°24' E 139°44'0 0.1
2018-Apr-14 17:59N 35°24' E 139°44'0 0.0
2018-Apr-14 17:29N 35°24' E 139°44'0 0.1
2018-Apr-14 16:59N 35°24' E 139°44'0 0.0
2018-Apr-14 16:29N 35°24' E 139°44'0 0.0
2018-Apr-14 15:59N 35°24' E 139°44'0 0.0
2018-Apr-14 15:29N 35°24' E 139°44'0 0.0
2018-Apr-14 14:59N 35°24' E 139°44'0 0.0
2018-Apr-14 14:29N 35°24' E 139°44'0 0.1
2018-Apr-14 13:59N 35°24' E 139°44'0 0.1
2018-Apr-14 13:29N 35°24' E 139°44'0 0.0
2018-Apr-14 12:59N 35°24' E 139°44'0 0.0
2018-Apr-14 12:29N 35°24' E 139°44'0 0.0
2018-Apr-14 11:59N 35°24' E 139°44'0 0.1
2018-Apr-14 11:29N 35°24' E 139°44'0 0.0
2018-Apr-14 10:59N 35°24' E 139°44'0 0.0
2018-Apr-14 10:29N 35°24' E 139°44'0 0.0
2018-Apr-14 09:59N 35°24' E 139°44'0 0.0
2018-Apr-14 09:29N 35°24' E 139°44'0 0.2
2018-Apr-14 08:59N 35°24' E 139°44'0 0.1
2018-Apr-14 08:29N 35°24' E 139°44'0 0.1
2018-Apr-14 07:59N 35°24' E 139°44'0 0.0
2018-Apr-14 07:29N 35°24' E 139°44'0 0.0
2018-Apr-14 06:59N 35°24' E 139°44'0 0.0
2018-Apr-14 06:29N 35°24' E 139°44'0 0.0
2018-Apr-14 05:59N 35°24' E 139°44'0 0.0
2018-Apr-14 05:29N 35°24' E 139°44'  
Track history (hours):
 
Tides and Currents Weather Stations Pressure Air Temp Water Temp Dewpoint Dewpoint Depression Visibility Wind Speed Wind Dir Waves Ship Positions

Shoei Maru

Last reported at 2018-Apr-24 05:00 UTC. Time now 2018-Apr-24 05:07 UTC.
Position N 35°04' E 136°52'.

Length 105 m; draft 6.3 m.

Type: Tanker. MMSI: 431001401.

Date/timePositionNaut miles runAvg speedWind from/ knotsBaromVisibWave heightAir tempDewpointWater temp
2018-Apr-24 05:00N 35°04' E 136°52'0 0.0
2018-Apr-24 04:30N 35°04' E 136°52'0 0.0
2018-Apr-24 04:00N 35°04' E 136°52'0 0.0
2018-Apr-24 03:30N 35°04' E 136°52'0 0.0
2018-Apr-24 03:00N 35°04' E 136°52'0 0.0
2018-Apr-24 02:30N 35°04' E 136°52'0 0.0
2018-Apr-24 02:00N 35°04' E 136°52'0 0.0
2018-Apr-24 01:30N 35°04' E 136°52'0 0.0
2018-Apr-24 01:00N 35°04' E 136°52'0 0.0
2018-Apr-24 00:30N 35°04' E 136°52'0 0.0
2018-Apr-24 00:00N 35°04' E 136°52'0 0.1
2018-Apr-23 23:30N 35°04' E 136°52'3 6.1
2018-Apr-23 23:00N 35°01' E 136°50'4 8.5
2018-Apr-23 22:30N 34°58' E 136°47'0 0.2
2018-Apr-23 22:00N 34°58' E 136°47'0 0.0
2018-Apr-23 21:30N 34°58' E 136°47'0 0.0
2018-Apr-23 21:00N 34°58' E 136°47'0 0.0
2018-Apr-23 20:30N 34°58' E 136°47'0 0.0
2018-Apr-23 20:00N 34°58' E 136°47'0 0.0
2018-Apr-23 19:30N 34°58' E 136°47'0 0.0
2018-Apr-23 19:00N 34°58' E 136°47'0 0.0
2018-Apr-23 18:30N 34°58' E 136°47'0 0.0
2018-Apr-23 18:00N 34°58' E 136°47'0 0.0
2018-Apr-23 17:30N 34°58' E 136°47'0 0.0
2018-Apr-23 17:00N 34°58' E 136°47'0 0.0
2018-Apr-23 16:30N 34°58' E 136°47'0 0.0
2018-Apr-23 16:00N 34°58' E 136°47'0 0.0
2018-Apr-23 15:30N 34°58' E 136°47'0 0.1
2018-Apr-23 15:00N 34°58' E 136°47'0 0.0
2018-Apr-23 14:30N 34°58' E 136°47'0 0.0
2018-Apr-23 14:00N 34°58' E 136°47'0 0.0
2018-Apr-23 13:30N 34°58' E 136°47'0 0.0
2018-Apr-23 13:00N 34°58' E 136°47'0 0.0
2018-Apr-23 12:30N 34°58' E 136°47'0 0.0
2018-Apr-23 12:00N 34°58' E 136°47'0 0.0
2018-Apr-23 11:30N 34°58' E 136°47'0 0.0
2018-Apr-23 11:00N 34°58' E 136°47'0 0.0
2018-Apr-23 10:30N 34°58' E 136°47'0 0.0
2018-Apr-23 10:00N 34°58' E 136°47'0 0.0
2018-Apr-23 09:30N 34°58' E 136°47'0 0.1
2018-Apr-23 09:00N 34°58' E 136°47'0 0.0
2018-Apr-23 08:30N 34°58' E 136°47'0 0.0
2018-Apr-23 08:00N 34°58' E 136°47'0 0.0
2018-Apr-23 07:30N 34°58' E 136°47'0 0.0
2018-Apr-23 07:00N 34°58' E 136°47'0 0.0
2018-Apr-23 06:30N 34°58' E 136°47'0 0.2
2018-Apr-23 06:00N 34°58' E 136°47'4 7.8
2018-Apr-23 05:30N 34°57' E 136°42'3 5.4
2018-Apr-23 04:56N 34°57' E 136°38'0 0.0
2018-Apr-23 04:29N 34°57' E 136°38'0 0.0
2018-Apr-23 03:56N 34°57' E 136°38'0 0.0
2018-Apr-23 03:29N 34°57' E 136°38'0 0.0
2018-Apr-23 02:56N 34°57' E 136°38'0 0.0
2018-Apr-23 02:26N 34°57' E 136°38'0 0.0
2018-Apr-23 01:59N 34°57' E 136°38'0 0.0
2018-Apr-23 01:26N 34°57' E 136°38'0 0.0
2018-Apr-23 00:56N 34°57' E 136°38'0 0.0
2018-Apr-23 00:29N 34°57' E 136°38'0 0.0
2018-Apr-22 23:56N 34°57' E 136°38'0 0.0
2018-Apr-22 23:26N 34°57' E 136°38'0 0.0
2018-Apr-22 22:56N 34°57' E 136°38'0 0.0
2018-Apr-22 22:29N 34°57' E 136°38'0 0.0
2018-Apr-22 21:57N 34°57' E 136°38'1 1.4
2018-Apr-22 21:30N 34°57' E 136°39'1 1.7
2018-Apr-22 20:55N 34°57' E 136°40'0 0.0
2018-Apr-22 20:28N 34°57' E 136°40'0 0.0
2018-Apr-22 19:58N 34°57' E 136°40'0 0.0
2018-Apr-22 19:25N 34°57' E 136°40'0 0.0
2018-Apr-22 18:58N 34°57' E 136°40'0 0.0
2018-Apr-22 18:28N 34°57' E 136°40'0 0.0
2018-Apr-22 17:58N 34°57' E 136°40'0 0.0
2018-Apr-22 17:28N 34°57' E 136°40'0 0.0
2018-Apr-22 16:49N 34°57' E 136°40'0 0.0
2018-Apr-22 16:28N 34°57' E 136°40'0 0.1
2018-Apr-22 15:58N 34°57' E 136°40'0 0.0
2018-Apr-22 15:28N 34°57' E 136°40'0 0.0
2018-Apr-22 14:58N 34°57' E 136°40'0 0.0
2018-Apr-22 14:28N 34°57' E 136°40'0 0.1
2018-Apr-22 13:59N 34°57' E 136°40'4 7.4
2018-Apr-22 13:30N 34°54' E 136°43'713.4
2018-Apr-22 13:00N 34°48' E 136°46'813.6
2018-Apr-22 12:25N 34°41' E 136°51'613.7
2018-Apr-22 12:00N 34°37' E 136°56'713.6
2018-Apr-22 11:30N 34°33' E 137°02'713.1
2018-Apr-22 11:00N 34°32' E 137°10'612.0
2018-Apr-22 10:31N 34°32' E 137°17'812.0
2018-Apr-22 09:52N 34°32' E 137°27'612.0
2018-Apr-22 09:23N 34°32' E 137°34'512.0
2018-Apr-22 08:59N 34°32' E 137°39'611.9
2018-Apr-22 08:30N 34°32' E 137°47'611.7
2018-Apr-22 07:57N 34°32' E 137°54'611.4
2018-Apr-22 07:27N 34°32' E 138°01'611.4
2018-Apr-22 06:58N 34°31' E 138°08'511.2
2018-Apr-22 06:29N 34°31' E 138°15'510.9
2018-Apr-22 05:58N 34°32' E 138°21'611.3
2018-Apr-22 05:28N 34°32' E 138°28'511.2
2018-Apr-22 05:00N 34°32' E 138°34'510.8
2018-Apr-22 04:30N 34°32' E 138°41'511.0
2018-Apr-22 04:00N 34°33' E 138°48'510.9
2018-Apr-22 03:30N 34°33' E 138°54'510.1
2018-Apr-22 03:00N 34°34' E 139°00'510.9
2018-Apr-22 02:30N 34°38' E 139°04'710.4
2018-Apr-22 01:48N 34°44' E 139°09'311.0
2018-Apr-22 01:30N 34°47' E 139°12'510.8
2018-Apr-22 00:59N 34°51' E 139°16'510.7
2018-Apr-22 00:29N 34°55' E 139°21'511.0
2018-Apr-22 00:00N 34°57' E 139°26'611.7
2018-Apr-21 23:29N 35°01' E 139°33'612.5
2018-Apr-21 23:00N 35°04' E 139°39'612.2
2018-Apr-21 22:30N 35°08' E 139°44'612.3
2018-Apr-21 22:00N 35°14' E 139°46'612.0
2018-Apr-21 21:30N 35°19' E 139°43'611.6
2018-Apr-21 21:00N 35°25' E 139°43'611.9
2018-Apr-21 20:31N 35°29' E 139°48'3 5.7
2018-Apr-21 20:00N 35°32' E 139°46'0 0.0
2018-Apr-21 19:27N 35°32' E 139°46'0 0.0
2018-Apr-21 19:00N 35°32' E 139°46'0 0.0
2018-Apr-21 18:30N 35°32' E 139°46'0 0.0
2018-Apr-21 18:00N 35°32' E 139°46'0 0.0
2018-Apr-21 17:30N 35°32' E 139°46'0 0.0
2018-Apr-21 17:00N 35°32' E 139°46'0 0.0
2018-Apr-21 16:30N 35°32' E 139°46'0 0.0
2018-Apr-21 16:00N 35°32' E 139°46'0 0.0
2018-Apr-21 15:30N 35°32' E 139°46'0 0.0
2018-Apr-21 14:57N 35°32' E 139°46'0 0.0
2018-Apr-21 14:30N 35°32' E 139°46'0 0.0
2018-Apr-21 14:00N 35°32' E 139°46'0 0.0
2018-Apr-21 13:30N 35°32' E 139°46'0 0.0
2018-Apr-21 12:57N 35°32' E 139°46'0 0.0
2018-Apr-21 12:27N 35°32' E 139°46'0 0.0
2018-Apr-21 12:00N 35°32' E 139°46'0 0.0
2018-Apr-21 11:30N 35°32' E 139°46'0 0.0
2018-Apr-21 10:57N 35°32' E 139°46'0 0.0
2018-Apr-21 10:30N 35°32' E 139°46'0 0.0
2018-Apr-21 09:45N 35°32' E 139°46'0 0.0
2018-Apr-21 09:24N 35°32' E 139°46'0 0.0
2018-Apr-21 09:00N 35°32' E 139°46'0 0.0
2018-Apr-21 08:21N 35°32' E 139°46'0 0.0
2018-Apr-21 07:57N 35°32' E 139°46'0 0.0
2018-Apr-21 07:30N 35°32' E 139°46'0 0.0
2018-Apr-21 07:00N 35°32' E 139°46'0 0.3
2018-Apr-21 06:31N 35°32' E 139°46'2 3.1
2018-Apr-21 06:00N 35°30' E 139°45'3 7.0
2018-Apr-21 05:31N 35°27' E 139°44'1 2.7
2018-Apr-21 05:01N 35°26' E 139°45'4 7.2
2018-Apr-21 04:31N 35°23' E 139°46'5 9.9
2018-Apr-21 04:01N 35°18' E 139°45'510.9
2018-Apr-21 03:31N 35°13' E 139°47'612.1
2018-Apr-21 03:01N 35°07' E 139°45'612.6
2018-Apr-21 02:31N 35°01' E 139°43'611.9
2018-Apr-21 02:00N 34°55' E 139°45'611.0
2018-Apr-21 01:29N 34°52' E 139°51'711.9
2018-Apr-21 00:54N 34°54' E 139°59'512.5
2018-Apr-21 00:30N 34°56' E 140°04'712.5
2018-Apr-20 23:57N 34°59' E 140°12'912.3
2018-Apr-20 23:15N 35°03' E 140°21'  
2018-Apr-16 18:02N 35°03' E 140°23'111.9
2018-Apr-16 18:00N 35°03' E 140°23'912.0
2018-Apr-16 17:17N 34°58' E 140°14'311.6
2018-Apr-16 17:00N 34°57' E 140°10'611.9
2018-Apr-16 16:30N 34°55' E 140°03'1111.9
2018-Apr-16 15:34N 34°51' E 139°51'111.2
2018-Apr-16 15:28N 34°52' E 139°49'710.4
2018-Apr-16 14:49N 34°57' E 139°44'412.8
2018-Apr-16 14:30N 35°01' E 139°43'612.5
2018-Apr-16 14:00N 35°07' E 139°44'612.7
2018-Apr-16 13:31N 35°13' E 139°46'612.3
2018-Apr-16 13:01N 35°19' E 139°43'611.8
2018-Apr-16 12:31N 35°24' E 139°40'2 2.9
2018-Apr-16 11:58N 35°25' E 139°38'0 0.0
2018-Apr-16 11:28N 35°25' E 139°38'0 0.0
2018-Apr-16 10:58N 35°25' E 139°38'0 0.0
2018-Apr-16 10:28N 35°25' E 139°38'0 0.0
2018-Apr-16 09:58N 35°25' E 139°38'0 0.0
2018-Apr-16 09:28N 35°25' E 139°38'0 0.0
2018-Apr-16 08:58N 35°25' E 139°38'0 0.0
2018-Apr-16 08:28N 35°25' E 139°38'0 0.0
2018-Apr-16 07:58N 35°25' E 139°38'0 0.0
2018-Apr-16 07:28N 35°25' E 139°38'0 0.0
2018-Apr-16 06:58N 35°25' E 139°38'0 0.0
2018-Apr-16 06:28N 35°25' E 139°38'0 0.0
2018-Apr-16 05:58N 35°25' E 139°38'0 0.0
2018-Apr-16 05:28N 35°25' E 139°38'0 0.0
2018-Apr-16 04:58N 35°25' E 139°38'0 0.0
2018-Apr-16 04:31N 35°25' E 139°38'1 1.8
2018-Apr-16 04:00N 35°24' E 139°39'3 6.9
2018-Apr-16 03:31N 35°24' E 139°43'0 0.7
2018-Apr-16 02:59N 35°23' E 139°44'0 0.0
2018-Apr-16 02:29N 35°23' E 139°44'0 0.0
2018-Apr-16 01:59N 35°23' E 139°44'0 0.0
2018-Apr-16 01:29N 35°23' E 139°44'0 0.0
2018-Apr-16 00:59N 35°23' E 139°44'0 0.0
2018-Apr-16 00:29N 35°23' E 139°44'0 0.0
2018-Apr-15 23:59N 35°23' E 139°44'0 0.0
2018-Apr-15 23:29N 35°23' E 139°44'0 0.0
2018-Apr-15 22:59N 35°23' E 139°44'0 0.0
2018-Apr-15 22:29N 35°23' E 139°44'0 0.1
2018-Apr-15 21:59N 35°23' E 139°44'0 0.1
2018-Apr-15 21:29N 35°23' E 139°44'0 0.1
2018-Apr-15 20:59N 35°23' E 139°44'0 0.0
2018-Apr-15 20:29N 35°23' E 139°44'0 0.0
2018-Apr-15 19:59N 35°23' E 139°44'0 0.0
2018-Apr-15 19:26N 35°23' E 139°44'0 0.0
2018-Apr-15 18:59N 35°23' E 139°44'0 0.0
2018-Apr-15 18:29N 35°23' E 139°44'0 0.0
2018-Apr-15 17:59N 35°23' E 139°44'0 0.0
2018-Apr-15 17:29N 35°23' E 139°44'0 0.0
2018-Apr-15 16:59N 35°23' E 139°44'0 0.0
2018-Apr-15 16:29N 35°23' E 139°44'0 0.0
2018-Apr-15 15:59N 35°23' E 139°44'0 0.0
2018-Apr-15 15:29N 35°23' E 139°44'0 0.0
2018-Apr-15 14:59N 35°23' E 139°44'0 0.0
2018-Apr-15 14:29N 35°23' E 139°44'0 0.0
2018-Apr-15 13:59N 35°23' E 139°44'0 0.1
2018-Apr-15 13:29N 35°23' E 139°44'0 0.1
2018-Apr-15 12:59N 35°23' E 139°44'0 0.0
2018-Apr-15 12:29N 35°23' E 139°44'0 0.0
2018-Apr-15 11:59N 35°23' E 139°44'0 0.0
2018-Apr-15 11:29N 35°23' E 139°44'0 0.1
2018-Apr-15 10:59N 35°23' E 139°44'0 0.0
2018-Apr-15 10:29N 35°23' E 139°44'0 0.0
2018-Apr-15 09:59N 35°23' E 139°44'0 0.1
2018-Apr-15 09:29N 35°24' E 139°44'0 0.2
2018-Apr-15 08:59N 35°24' E 139°44'0 0.0
2018-Apr-15 08:29N 35°24' E 139°44'0 0.1
2018-Apr-15 07:59N 35°24' E 139°44'0 0.0
2018-Apr-15 07:29N 35°24' E 139°44'0 0.0
2018-Apr-15 06:59N 35°24' E 139°44'0 0.0
2018-Apr-15 06:29N 35°24' E 139°44'0 0.0
2018-Apr-15 05:59N 35°24' E 139°44'0 0.0
2018-Apr-15 05:29N 35°24' E 139°44'0 0.0
2018-Apr-15 04:59N 35°24' E 139°44'0 0.0
2018-Apr-15 04:29N 35°24' E 139°44'0 0.0
2018-Apr-15 03:59N 35°24' E 139°44'0 0.0
2018-Apr-15 03:29N 35°24' E 139°44'0 0.0
2018-Apr-15 02:59N 35°24' E 139°44'0 0.0
2018-Apr-15 02:29N 35°24' E 139°44'0 0.0
2018-Apr-15 01:59N 35°24' E 139°44'0 0.0
2018-Apr-15 01:29N 35°24' E 139°44'0 0.0
2018-Apr-15 00:59N 35°24' E 139°44'0 0.0
2018-Apr-15 00:29N 35°24' E 139°44'0 0.0
2018-Apr-14 23:59N 35°24' E 139°44'0 0.1
2018-Apr-14 23:26N 35°24' E 139°44'0 0.0
2018-Apr-14 22:59N 35°24' E 139°44'0 0.0
2018-Apr-14 22:29N 35°24' E 139°44'0 0.0
2018-Apr-14 21:59N 35°24' E 139°44'0 0.1
2018-Apr-14 21:29N 35°24' E 139°44'0 0.0
2018-Apr-14 20:59N 35°24' E 139°44'0 0.1
2018-Apr-14 20:29N 35°24' E 139°44'0 0.0
2018-Apr-14 19:59N 35°24' E 139°44'0 0.0
2018-Apr-14 19:29N 35°24' E 139°44'0 0.0
2018-Apr-14 18:59N 35°24' E 139°44'0 0.1
2018-Apr-14 18:29N 35°24' E 139°44'0 0.1
2018-Apr-14 17:59N 35°24' E 139°44'0 0.0
2018-Apr-14 17:29N 35°24' E 139°44'0 0.1
2018-Apr-14 16:59N 35°24' E 139°44'0 0.0
2018-Apr-14 16:29N 35°24' E 139°44'0 0.0
2018-Apr-14 15:59N 35°24' E 139°44'0 0.0
2018-Apr-14 15:29N 35°24' E 139°44'0 0.0
2018-Apr-14 14:59N 35°24' E 139°44'0 0.0
2018-Apr-14 14:29N 35°24' E 139°44'0 0.1
2018-Apr-14 13:59N 35°24' E 139°44'0 0.1
2018-Apr-14 13:29N 35°24' E 139°44'0 0.0
2018-Apr-14 12:59N 35°24' E 139°44'0 0.0
2018-Apr-14 12:29N 35°24' E 139°44'0 0.0
2018-Apr-14 11:59N 35°24' E 139°44'0 0.1
2018-Apr-14 11:29N 35°24' E 139°44'0 0.0
2018-Apr-14 10:59N 35°24' E 139°44'0 0.0
2018-Apr-14 10:29N 35°24' E 139°44'0 0.0
2018-Apr-14 09:59N 35°24' E 139°44'0 0.0
2018-Apr-14 09:29N 35°24' E 139°44'0 0.2
2018-Apr-14 08:59N 35°24' E 139°44'0 0.1
2018-Apr-14 08:29N 35°24' E 139°44'0 0.1
2018-Apr-14 07:59N 35°24' E 139°44'0 0.0
2018-Apr-14 07:29N 35°24' E 139°44'0 0.0
2018-Apr-14 06:59N 35°24' E 139°44'0 0.0
2018-Apr-14 06:29N 35°24' E 139°44'0 0.0
2018-Apr-14 05:59N 35°24' E 139°44'0 0.0
2018-Apr-14 05:29N 35°24' E 139°44'  

Dump ship's entire track history